sensor_id;sensor_type;location;lat;lon;timestamp;P1;durP1;ratioP1;P2;durP2;ratioP2
47866;SDS011;33628;50.806;11.586;2022-07-26T00:01:29;9.18;;;2.67;;
47866;SDS011;33628;50.806;11.586;2022-07-26T00:03:56;6.38;;;2.53;;
47866;SDS011;33628;50.806;11.586;2022-07-26T00:06:22;4.88;;;2.08;;
47866;SDS011;33628;50.806;11.586;2022-07-26T00:08:50;8.02;;;2.35;;
47866;SDS011;33628;50.806;11.586;2022-07-26T00:11:17;7.47;;;2.70;;
47866;SDS011;33628;50.806;11.586;2022-07-26T00:13:43;4.78;;;2.33;;
47866;SDS011;33628;50.806;11.586;2022-07-26T00:16:11;6.75;;;2.83;;
47866;SDS011;33628;50.806;11.586;2022-07-26T00:18:37;5.22;;;2.33;;
47866;SDS011;33628;50.806;11.586;2022-07-26T00:21:03;4.53;;;2.60;;
47866;SDS011;33628;50.806;11.586;2022-07-26T00:23:30;3.17;;;2.20;;
47866;SDS011;33628;50.806;11.586;2022-07-26T00:25:56;6.13;;;2.65;;
47866;SDS011;33628;50.806;11.586;2022-07-26T00:28:22;7.40;;;2.47;;
47866;SDS011;33628;50.806;11.586;2022-07-26T00:30:48;4.20;;;2.22;;
47866;SDS011;33628;50.806;11.586;2022-07-26T00:33:16;5.68;;;2.22;;
47866;SDS011;33628;50.806;11.586;2022-07-26T00:35:42;8.93;;;2.30;;
47866;SDS011;33628;50.806;11.586;2022-07-26T00:38:09;6.88;;;1.98;;
47866;SDS011;33628;50.806;11.586;2022-07-26T00:40:35;6.85;;;2.22;;
47866;SDS011;33628;50.806;11.586;2022-07-26T00:43:01;4.40;;;2.05;;
47866;SDS011;33628;50.806;11.586;2022-07-26T00:45:27;4.28;;;1.70;;
47866;SDS011;33628;50.806;11.586;2022-07-26T00:47:53;5.68;;;2.00;;
47866;SDS011;33628;50.806;11.586;2022-07-26T00:50:21;8.95;;;2.03;;
47866;SDS011;33628;50.806;11.586;2022-07-26T00:52:48;5.05;;;1.77;;
47866;SDS011;33628;50.806;11.586;2022-07-26T00:55:16;6.53;;;2.13;;
47866;SDS011;33628;50.806;11.586;2022-07-26T00:57:43;4.85;;;1.95;;
47866;SDS011;33628;50.806;11.586;2022-07-26T01:00:10;5.22;;;1.95;;
47866;SDS011;33628;50.806;11.586;2022-07-26T01:02:37;4.10;;;1.92;;
47866;SDS011;33628;50.806;11.586;2022-07-26T01:05:04;4.80;;;1.75;;
47866;SDS011;33628;50.806;11.586;2022-07-26T01:07:32;3.33;;;1.75;;
47866;SDS011;33628;50.806;11.586;2022-07-26T01:09:58;7.38;;;2.20;;
47866;SDS011;33628;50.806;11.586;2022-07-26T01:12:26;10.25;;;2.13;;
47866;SDS011;33628;50.806;11.586;2022-07-26T01:14:52;7.70;;;2.70;;
47866;SDS011;33628;50.806;11.586;2022-07-26T01:17:19;4.35;;;2.00;;
47866;SDS011;33628;50.806;11.586;2022-07-26T01:19:45;5.53;;;2.25;;
47866;SDS011;33628;50.806;11.586;2022-07-26T01:22:13;8.30;;;2.63;;
47866;SDS011;33628;50.806;11.586;2022-07-26T01:24:39;4.18;;;2.28;;
47866;SDS011;33628;50.806;11.586;2022-07-26T01:27:06;6.07;;;2.00;;
47866;SDS011;33628;50.806;11.586;2022-07-26T01:29:32;6.75;;;1.60;;
47866;SDS011;33628;50.806;11.586;2022-07-26T01:31:59;6.72;;;1.85;;
47866;SDS011;33628;50.806;11.586;2022-07-26T01:34:26;6.45;;;2.38;;
47866;SDS011;33628;50.806;11.586;2022-07-26T01:36:52;6.47;;;2.20;;
47866;SDS011;33628;50.806;11.586;2022-07-26T01:39:22;9.63;;;2.13;;
47866;SDS011;33628;50.806;11.586;2022-07-26T01:41:48;5.80;;;2.03;;
47866;SDS011;33628;50.806;11.586;2022-07-26T01:44:14;4.90;;;2.05;;
47866;SDS011;33628;50.806;11.586;2022-07-26T01:46:40;8.73;;;1.88;;
47866;SDS011;33628;50.806;11.586;2022-07-26T01:49:07;6.57;;;2.60;;
47866;SDS011;33628;50.806;11.586;2022-07-26T01:51:33;6.97;;;3.00;;
47866;SDS011;33628;50.806;11.586;2022-07-26T01:54:00;10.65;;;3.67;;
47866;SDS011;33628;50.806;11.586;2022-07-26T01:56:28;17.33;;;3.13;;
47866;SDS011;33628;50.806;11.586;2022-07-26T01:58:54;6.50;;;2.63;;
47866;SDS011;33628;50.806;11.586;2022-07-26T02:01:21;6.68;;;2.42;;
47866;SDS011;33628;50.806;11.586;2022-07-26T02:03:47;10.73;;;3.97;;
47866;SDS011;33628;50.806;11.586;2022-07-26T02:06:14;7.78;;;3.20;;
47866;SDS011;33628;50.806;11.586;2022-07-26T02:08:40;10.38;;;2.83;;
47866;SDS011;33628;50.806;11.586;2022-07-26T02:11:06;9.52;;;2.85;;
47866;SDS011;33628;50.806;11.586;2022-07-26T02:13:34;10.75;;;3.58;;
47866;SDS011;33628;50.806;11.586;2022-07-26T02:16:01;5.78;;;3.22;;
47866;SDS011;33628;50.806;11.586;2022-07-26T02:18:27;8.60;;;3.03;;
47866;SDS011;33628;50.806;11.586;2022-07-26T02:20:54;8.80;;;3.20;;
47866;SDS011;33628;50.806;11.586;2022-07-26T02:23:21;9.68;;;2.40;;
47866;SDS011;33628;50.806;11.586;2022-07-26T02:25:48;5.03;;;2.38;;
47866;SDS011;33628;50.806;11.586;2022-07-26T02:28:14;4.85;;;2.53;;
47866;SDS011;33628;50.806;11.586;2022-07-26T02:30:42;7.70;;;2.95;;
47866;SDS011;33628;50.806;11.586;2022-07-26T02:33:09;9.40;;;2.95;;
47866;SDS011;33628;50.806;11.586;2022-07-26T02:35:35;4.15;;;2.20;;
47866;SDS011;33628;50.806;11.586;2022-07-26T02:38:02;5.03;;;2.40;;
47866;SDS011;33628;50.806;11.586;2022-07-26T02:40:28;5.20;;;2.10;;
47866;SDS011;33628;50.806;11.586;2022-07-26T02:42:54;5.93;;;1.95;;
47866;SDS011;33628;50.806;11.586;2022-07-26T02:45:20;4.00;;;2.42;;
47866;SDS011;33628;50.806;11.586;2022-07-26T02:47:48;5.63;;;2.42;;
47866;SDS011;33628;50.806;11.586;2022-07-26T02:50:16;8.60;;;2.45;;
47866;SDS011;33628;50.806;11.586;2022-07-26T02:52:42;7.47;;;2.30;;
47866;SDS011;33628;50.806;11.586;2022-07-26T02:55:11;7.57;;;2.20;;
47866;SDS011;33628;50.806;11.586;2022-07-26T02:57:37;5.65;;;2.22;;
47866;SDS011;33628;50.806;11.586;2022-07-26T03:00:03;6.60;;;2.67;;
47866;SDS011;33628;50.806;11.586;2022-07-26T03:02:34;9.30;;;3.47;;
47866;SDS011;33628;50.806;11.586;2022-07-26T03:05:02;12.93;;;4.35;;
47866;SDS011;33628;50.806;11.586;2022-07-26T03:07:28;8.57;;;3.25;;
47866;SDS011;33628;50.806;11.586;2022-07-26T03:09:54;9.25;;;3.35;;
47866;SDS011;33628;50.806;11.586;2022-07-26T03:12:20;8.10;;;3.10;;
47866;SDS011;33628;50.806;11.586;2022-07-26T03:14:46;7.68;;;3.08;;
47866;SDS011;33628;50.806;11.586;2022-07-26T03:17:12;5.57;;;2.85;;
47866;SDS011;33628;50.806;11.586;2022-07-26T03:19:39;10.20;;;3.10;;
47866;SDS011;33628;50.806;11.586;2022-07-26T03:22:06;7.15;;;3.10;;
47866;SDS011;33628;50.806;11.586;2022-07-26T03:24:32;8.63;;;3.05;;
47866;SDS011;33628;50.806;11.586;2022-07-26T03:26:59;9.77;;;2.78;;
47866;SDS011;33628;50.806;11.586;2022-07-26T03:29:25;7.93;;;2.63;;
47866;SDS011;33628;50.806;11.586;2022-07-26T03:31:51;8.15;;;2.60;;
47866;SDS011;33628;50.806;11.586;2022-07-26T03:34:17;6.70;;;2.88;;
47866;SDS011;33628;50.806;11.586;2022-07-26T03:36:43;5.95;;;3.08;;
47866;SDS011;33628;50.806;11.586;2022-07-26T03:39:11;7.22;;;3.08;;
47866;SDS011;33628;50.806;11.586;2022-07-26T03:41:37;6.35;;;2.90;;
47866;SDS011;33628;50.806;11.586;2022-07-26T03:44:03;6.97;;;2.95;;
47866;SDS011;33628;50.806;11.586;2022-07-26T03:46:30;5.18;;;3.28;;
47866;SDS011;33628;50.806;11.586;2022-07-26T03:48:56;13.07;;;3.92;;
47866;SDS011;33628;50.806;11.586;2022-07-26T03:51:22;7.22;;;3.17;;
47866;SDS011;33628;50.806;11.586;2022-07-26T03:53:49;6.97;;;2.78;;
47866;SDS011;33628;50.806;11.586;2022-07-26T03:56:16;6.60;;;2.67;;
47866;SDS011;33628;50.806;11.586;2022-07-26T03:58:58;7.32;;;2.80;;
47866;SDS011;33628;50.806;11.586;2022-07-26T04:01:25;4.68;;;2.50;;
47866;SDS011;33628;50.806;11.586;2022-07-26T04:03:52;6.30;;;2.90;;
47866;SDS011;33628;50.806;11.586;2022-07-26T04:06:18;8.60;;;2.63;;
47866;SDS011;33628;50.806;11.586;2022-07-26T04:08:44;7.43;;;2.75;;
47866;SDS011;33628;50.806;11.586;2022-07-26T04:11:11;4.05;;;2.85;;
47866;SDS011;33628;50.806;11.586;2022-07-26T04:13:38;7.38;;;3.58;;
47866;SDS011;33628;50.806;11.586;2022-07-26T04:16:05;6.38;;;3.17;;
47866;SDS011;33628;50.806;11.586;2022-07-26T04:18:31;5.93;;;3.05;;
47866;SDS011;33628;50.806;11.586;2022-07-26T04:20:58;8.82;;;3.05;;
47866;SDS011;33628;50.806;11.586;2022-07-26T04:23:24;5.72;;;2.45;;
47866;SDS011;33628;50.806;11.586;2022-07-26T04:25:50;8.70;;;2.70;;
47866;SDS011;33628;50.806;11.586;2022-07-26T04:28:16;9.02;;;3.00;;
47866;SDS011;33628;50.806;11.586;2022-07-26T04:30:44;5.82;;;2.53;;
47866;SDS011;33628;50.806;11.586;2022-07-26T04:33:10;6.28;;;2.67;;
47866;SDS011;33628;50.806;11.586;2022-07-26T04:35:36;9.25;;;2.92;;
47866;SDS011;33628;50.806;11.586;2022-07-26T04:38:02;6.68;;;2.92;;
47866;SDS011;33628;50.806;11.586;2022-07-26T04:40:29;8.95;;;2.58;;
47866;SDS011;33628;50.806;11.586;2022-07-26T04:42:58;8.38;;;2.53;;
47866;SDS011;33628;50.806;11.586;2022-07-26T04:45:24;10.13;;;2.97;;
47866;SDS011;33628;50.806;11.586;2022-07-26T04:47:52;6.63;;;2.38;;
47866;SDS011;33628;50.806;11.586;2022-07-26T04:50:18;5.13;;;2.63;;
47866;SDS011;33628;50.806;11.586;2022-07-26T04:52:46;3.45;;;2.63;;
47866;SDS011;33628;50.806;11.586;2022-07-26T04:55:12;10.75;;;2.90;;
47866;SDS011;33628;50.806;11.586;2022-07-26T04:57:39;6.85;;;2.90;;
47866;SDS011;33628;50.806;11.586;2022-07-26T05:00:07;5.93;;;2.50;;
47866;SDS011;33628;50.806;11.586;2022-07-26T05:02:34;7.93;;;2.88;;
47866;SDS011;33628;50.806;11.586;2022-07-26T05:05:02;6.22;;;3.00;;
47866;SDS011;33628;50.806;11.586;2022-07-26T05:07:37;12.00;;;3.13;;
47866;SDS011;33628;50.806;11.586;2022-07-26T05:10:05;11.00;;;3.08;;
47866;SDS011;33628;50.806;11.586;2022-07-26T05:12:31;8.52;;;3.40;;
47866;SDS011;33628;50.806;11.586;2022-07-26T05:14:57;5.22;;;3.03;;
47866;SDS011;33628;50.806;11.586;2022-07-26T05:17:23;6.97;;;3.05;;
47866;SDS011;33628;50.806;11.586;2022-07-26T05:19:49;11.35;;;4.38;;
47866;SDS011;33628;50.806;11.586;2022-07-26T05:22:17;7.85;;;2.78;;
47866;SDS011;33628;50.806;11.586;2022-07-26T05:24:43;7.75;;;3.13;;
47866;SDS011;33628;50.806;11.586;2022-07-26T05:27:09;7.72;;;2.63;;
47866;SDS011;33628;50.806;11.586;2022-07-26T05:29:35;7.88;;;3.10;;
47866;SDS011;33628;50.806;11.586;2022-07-26T05:32:02;8.13;;;3.03;;
47866;SDS011;33628;50.806;11.586;2022-07-26T05:34:28;5.85;;;2.90;;
47866;SDS011;33628;50.806;11.586;2022-07-26T05:36:54;12.52;;;2.72;;
47866;SDS011;33628;50.806;11.586;2022-07-26T05:39:22;8.95;;;3.03;;
47866;SDS011;33628;50.806;11.586;2022-07-26T05:41:48;6.60;;;2.67;;
47866;SDS011;33628;50.806;11.586;2022-07-26T05:44:14;9.50;;;3.05;;
47866;SDS011;33628;50.806;11.586;2022-07-26T05:46:40;10.35;;;3.30;;
47866;SDS011;33628;50.806;11.586;2022-07-26T05:49:06;5.65;;;2.85;;
47866;SDS011;33628;50.806;11.586;2022-07-26T05:51:33;5.72;;;2.50;;
47866;SDS011;33628;50.806;11.586;2022-07-26T05:53:59;4.68;;;2.20;;
47866;SDS011;33628;50.806;11.586;2022-07-26T05:56:26;7.55;;;2.15;;
47866;SDS011;33628;50.806;11.586;2022-07-26T05:58:53;6.53;;;3.03;;
47866;SDS011;33628;50.806;11.586;2022-07-26T06:01:19;4.25;;;2.15;;
47866;SDS011;33628;50.806;11.586;2022-07-26T06:03:45;3.70;;;2.03;;
47866;SDS011;33628;50.806;11.586;2022-07-26T06:06:11;7.22;;;2.38;;
47866;SDS011;33628;50.806;11.586;2022-07-26T06:08:37;6.18;;;1.77;;
47866;SDS011;33628;50.806;11.586;2022-07-26T06:11:03;7.95;;;2.17;;
47866;SDS011;33628;50.806;11.586;2022-07-26T06:13:31;5.53;;;2.33;;
47866;SDS011;33628;50.806;11.586;2022-07-26T06:15:58;6.75;;;2.72;;
47866;SDS011;33628;50.806;11.586;2022-07-26T06:18:24;6.53;;;1.77;;
47866;SDS011;33628;50.806;11.586;2022-07-26T06:20:50;6.75;;;1.92;;
47866;SDS011;33628;50.806;11.586;2022-07-26T06:23:17;7.47;;;1.33;;
47866;SDS011;33628;50.806;11.586;2022-07-26T06:25:43;7.60;;;1.60;;
47866;SDS011;33628;50.806;11.586;2022-07-26T06:28:09;8.25;;;1.38;;
47866;SDS011;33628;50.806;11.586;2022-07-26T06:30:37;6.07;;;1.25;;
47866;SDS011;33628;50.806;11.586;2022-07-26T06:33:04;6.53;;;1.63;;
47866;SDS011;33628;50.806;11.586;2022-07-26T06:35:30;6.43;;;1.27;;
47866;SDS011;33628;50.806;11.586;2022-07-26T06:37:57;7.10;;;1.30;;
47866;SDS011;33628;50.806;11.586;2022-07-26T06:40:24;16.58;;;1.70;;
47866;SDS011;33628;50.806;11.586;2022-07-26T06:42:50;3.63;;;1.40;;
47866;SDS011;33628;50.806;11.586;2022-07-26T06:45:16;5.18;;;1.20;;
47866;SDS011;33628;50.806;11.586;2022-07-26T06:47:44;5.97;;;1.05;;
47866;SDS011;33628;50.806;11.586;2022-07-26T06:50:10;4.05;;;1.10;;
47866;SDS011;33628;50.806;11.586;2022-07-26T06:52:36;5.18;;;1.08;;
47866;SDS011;33628;50.806;11.586;2022-07-26T06:55:02;3.78;;;1.20;;
47866;SDS011;33628;50.806;11.586;2022-07-26T06:57:29;4.30;;;0.88;;
47866;SDS011;33628;50.806;11.586;2022-07-26T06:59:56;5.00;;;1.08;;
47866;SDS011;33628;50.806;11.586;2022-07-26T07:02:22;5.82;;;1.30;;
47866;SDS011;33628;50.806;11.586;2022-07-26T07:04:49;5.95;;;1.00;;
47866;SDS011;33628;50.806;11.586;2022-07-26T07:07:15;4.82;;;1.23;;
47866;SDS011;33628;50.806;11.586;2022-07-26T07:09:41;5.75;;;0.90;;
47866;SDS011;33628;50.806;11.586;2022-07-26T07:12:08;4.07;;;1.00;;
47866;SDS011;33628;50.806;11.586;2022-07-26T07:14:34;5.22;;;1.27;;
47866;SDS011;33628;50.806;11.586;2022-07-26T07:17:01;8.95;;;1.40;;
47866;SDS011;33628;50.806;11.586;2022-07-26T07:19:27;3.90;;;1.20;;
47866;SDS011;33628;50.806;11.586;2022-07-26T07:21:55;4.45;;;0.90;;
47866;SDS011;33628;50.806;11.586;2022-07-26T07:24:21;3.05;;;1.02;;
47866;SDS011;33628;50.806;11.586;2022-07-26T07:26:48;3.85;;;1.17;;
47866;SDS011;33628;50.806;11.586;2022-07-26T07:29:14;7.85;;;1.10;;
47866;SDS011;33628;50.806;11.586;2022-07-26T07:31:41;4.30;;;0.95;;
47866;SDS011;33628;50.806;11.586;2022-07-26T07:34:10;4.55;;;1.10;;
47866;SDS011;33628;50.806;11.586;2022-07-26T07:36:36;5.53;;;1.20;;
47866;SDS011;33628;50.806;11.586;2022-07-26T07:39:04;6.93;;;1.20;;
47866;SDS011;33628;50.806;11.586;2022-07-26T07:41:30;3.22;;;0.77;;
47866;SDS011;33628;50.806;11.586;2022-07-26T07:43:58;5.43;;;1.00;;
47866;SDS011;33628;50.806;11.586;2022-07-26T07:46:24;4.68;;;0.98;;
47866;SDS011;33628;50.806;11.586;2022-07-26T07:48:51;6.28;;;0.82;;
47866;SDS011;33628;50.806;11.586;2022-07-26T07:51:18;3.65;;;0.93;;
47866;SDS011;33628;50.806;11.586;2022-07-26T07:53:44;6.38;;;0.98;;
47866;SDS011;33628;50.806;11.586;2022-07-26T07:56:12;5.88;;;0.90;;
47866;SDS011;33628;50.806;11.586;2022-07-26T07:58:38;4.75;;;1.10;;
47866;SDS011;33628;50.806;11.586;2022-07-26T08:01:05;4.80;;;0.70;;
47866;SDS011;33628;50.806;11.586;2022-07-26T08:03:31;5.22;;;1.05;;
47866;SDS011;33628;50.806;11.586;2022-07-26T08:05:57;2.50;;;0.93;;
47866;SDS011;33628;50.806;11.586;2022-07-26T08:08:23;9.70;;;1.10;;
47866;SDS011;33628;50.806;11.586;2022-07-26T08:10:50;3.83;;;0.85;;
47866;SDS011;33628;50.806;11.586;2022-07-26T08:13:18;5.30;;;0.93;;
47866;SDS011;33628;50.806;11.586;2022-07-26T08:15:44;3.53;;;0.90;;
47866;SDS011;33628;50.806;11.586;2022-07-26T08:18:11;4.18;;;1.02;;
47866;SDS011;33628;50.806;11.586;2022-07-26T08:20:37;2.45;;;0.95;;
47866;SDS011;33628;50.806;11.586;2022-07-26T08:23:03;3.15;;;0.73;;
47866;SDS011;33628;50.806;11.586;2022-07-26T08:25:30;3.40;;;1.00;;
47866;SDS011;33628;50.806;11.586;2022-07-26T08:27:56;4.25;;;0.80;;
47866;SDS011;33628;50.806;11.586;2022-07-26T08:30:23;3.20;;;0.50;;
47866;SDS011;33628;50.806;11.586;2022-07-26T08:32:49;6.97;;;0.90;;
47866;SDS011;33628;50.806;11.586;2022-07-26T08:35:15;3.92;;;1.00;;
47866;SDS011;33628;50.806;11.586;2022-07-26T08:37:42;3.17;;;0.90;;
47866;SDS011;33628;50.806;11.586;2022-07-26T08:40:08;4.18;;;0.80;;
47866;SDS011;33628;50.806;11.586;2022-07-26T08:42:34;2.70;;;0.60;;
47866;SDS011;33628;50.806;11.586;2022-07-26T08:45:01;1.40;;;0.80;;
47866;SDS011;33628;50.806;11.586;2022-07-26T08:47:28;3.08;;;0.80;;
47866;SDS011;33628;50.806;11.586;2022-07-26T08:49:55;3.85;;;0.80;;
47866;SDS011;33628;50.806;11.586;2022-07-26T08:52:22;4.18;;;0.70;;
47866;SDS011;33628;50.806;11.586;2022-07-26T08:54:50;4.25;;;0.80;;
47866;SDS011;33628;50.806;11.586;2022-07-26T08:57:16;8.00;;;0.82;;
47866;SDS011;33628;50.806;11.586;2022-07-26T08:59:43;4.05;;;0.68;;
47866;SDS011;33628;50.806;11.586;2022-07-26T09:02:11;3.55;;;0.80;;
47866;SDS011;33628;50.806;11.586;2022-07-26T09:04:39;2.38;;;0.60;;
47866;SDS011;33628;50.806;11.586;2022-07-26T09:07:08;2.63;;;0.60;;
47866;SDS011;33628;50.806;11.586;2022-07-26T09:09:36;0.88;;;0.55;;
47866;SDS011;33628;50.806;11.586;2022-07-26T09:12:12;4.53;;;0.60;;
47866;SDS011;33628;50.806;11.586;2022-07-26T09:14:38;2.03;;;0.68;;
47866;SDS011;33628;50.806;11.586;2022-07-26T09:17:05;1.35;;;0.60;;
47866;SDS011;33628;50.806;11.586;2022-07-26T09:19:32;1.58;;;0.50;;
47866;SDS011;33628;50.806;11.586;2022-07-26T09:22:06;1.30;;;0.50;;
47866;SDS011;33628;50.806;11.586;2022-07-26T09:24:33;2.28;;;1.35;;
47866;SDS011;33628;50.806;11.586;2022-07-26T09:27:02;2.33;;;0.57;;
47866;SDS011;33628;50.806;11.586;2022-07-26T09:29:29;4.60;;;0.80;;
47866;SDS011;33628;50.806;11.586;2022-07-26T09:32:09;1.33;;;0.50;;
47866;SDS011;33628;50.806;11.586;2022-07-26T09:34:41;1.83;;;0.40;;
47866;SDS011;33628;50.806;11.586;2022-07-26T09:37:09;3.22;;;0.35;;
47866;SDS011;33628;50.806;11.586;2022-07-26T09:42:17;2.45;;;0.50;;
47866;SDS011;33628;50.806;11.586;2022-07-26T09:44:44;5.20;;;0.63;;
47866;SDS011;33628;50.806;11.586;2022-07-26T09:47:10;3.08;;;0.90;;
47866;SDS011;33628;50.806;11.586;2022-07-26T09:49:36;3.35;;;0.55;;
47866;SDS011;33628;50.806;11.586;2022-07-26T09:52:02;1.75;;;0.40;;
47866;SDS011;33628;50.806;11.586;2022-07-26T09:54:40;7.65;;;0.60;;
47866;SDS011;33628;50.806;11.586;2022-07-26T09:57:10;3.38;;;0.52;;
47866;SDS011;33628;50.806;11.586;2022-07-26T09:59:37;4.43;;;0.90;;
47866;SDS011;33628;50.806;11.586;2022-07-26T10:02:03;2.60;;;0.40;;
47866;SDS011;33628;50.806;11.586;2022-07-26T10:04:30;3.75;;;0.57;;
47866;SDS011;33628;50.806;11.586;2022-07-26T10:06:56;2.25;;;0.50;;
47866;SDS011;33628;50.806;11.586;2022-07-26T10:09:22;2.85;;;0.38;;
47866;SDS011;33628;50.806;11.586;2022-07-26T10:11:51;1.80;;;0.55;;
47866;SDS011;33628;50.806;11.586;2022-07-26T10:20:11;2.20;;;0.43;;
47866;SDS011;33628;50.806;11.586;2022-07-26T10:22:57;1.33;;;0.50;;
47866;SDS011;33628;50.806;11.586;2022-07-26T10:25:45;2.95;;;0.70;;
47866;SDS011;33628;50.806;11.586;2022-07-26T10:28:26;0.82;;;0.40;;
47866;SDS011;33628;50.806;11.586;2022-07-26T10:31:06;4.32;;;0.40;;
47866;SDS011;33628;50.806;11.586;2022-07-26T10:33:48;1.07;;;0.30;;
47866;SDS011;33628;50.806;11.586;2022-07-26T10:36:26;2.03;;;0.63;;
47866;SDS011;33628;50.806;11.586;2022-07-26T10:38:57;1.50;;;0.47;;
47866;SDS011;33628;50.806;11.586;2022-07-26T10:41:32;1.63;;;0.55;;
47866;SDS011;33628;50.806;11.586;2022-07-26T10:44:14;1.77;;;0.50;;
47866;SDS011;33628;50.806;11.586;2022-07-26T10:46:59;2.08;;;0.50;;
47866;SDS011;33628;50.806;11.586;2022-07-26T10:49:37;4.60;;;0.60;;
47866;SDS011;33628;50.806;11.586;2022-07-26T10:52:05;2.80;;;0.40;;
47866;SDS011;33628;50.806;11.586;2022-07-26T10:57:39;5.32;;;0.90;;
47866;SDS011;33628;50.806;11.586;2022-07-26T11:00:09;0.90;;;0.50;;
47866;SDS011;33628;50.806;11.586;2022-07-26T11:02:46;1.55;;;0.50;;
47866;SDS011;33628;50.806;11.586;2022-07-26T11:05:14;3.40;;;0.52;;
47866;SDS011;33628;50.806;11.586;2022-07-26T11:07:52;2.35;;;0.50;;
47866;SDS011;33628;50.806;11.586;2022-07-26T11:10:35;1.52;;;0.55;;
47866;SDS011;33628;50.806;11.586;2022-07-26T11:13:06;2.70;;;0.40;;
47866;SDS011;33628;50.806;11.586;2022-07-26T11:15:39;1.15;;;0.35;;
47866;SDS011;33628;50.806;11.586;2022-07-26T11:18:12;2.60;;;0.47;;
47866;SDS011;33628;50.806;11.586;2022-07-26T11:20:45;2.42;;;0.40;;
47866;SDS011;33628;50.806;11.586;2022-07-26T11:23:18;1.63;;;0.50;;
47866;SDS011;33628;50.806;11.586;2022-07-26T11:28:50;3.08;;;0.57;;
47866;SDS011;33628;50.806;11.586;2022-07-26T11:31:23;2.65;;;0.50;;
47866;SDS011;33628;50.806;11.586;2022-07-26T11:33:55;1.77;;;0.60;;
47866;SDS011;33628;50.806;11.586;2022-07-26T11:36:37;2.55;;;0.60;;
47866;SDS011;33628;50.806;11.586;2022-07-26T11:39:04;1.42;;;0.38;;
47866;SDS011;33628;50.806;11.586;2022-07-26T11:41:31;1.52;;;0.40;;
47866;SDS011;33628;50.806;11.586;2022-07-26T11:43:58;1.65;;;0.40;;
47866;SDS011;33628;50.806;11.586;2022-07-26T11:46:36;1.55;;;0.40;;
47866;SDS011;33628;50.806;11.586;2022-07-26T11:49:03;1.48;;;0.43;;
47866;SDS011;33628;50.806;11.586;2022-07-26T11:51:36;4.20;;;0.60;;
47866;SDS011;33628;50.806;11.586;2022-07-26T11:54:03;3.25;;;0.63;;
47866;SDS011;33628;50.806;11.586;2022-07-26T11:56:29;5.05;;;0.52;;
47866;SDS011;33628;50.806;11.586;2022-07-26T11:58:56;4.25;;;0.50;;
47866;SDS011;33628;50.806;11.586;2022-07-26T12:01:24;1.40;;;0.60;;
47866;SDS011;33628;50.806;11.586;2022-07-26T12:03:53;2.67;;;0.60;;
47866;SDS011;33628;50.806;11.586;2022-07-26T12:06:20;3.08;;;0.70;;
47866;SDS011;33628;50.806;11.586;2022-07-26T12:08:49;1.88;;;0.57;;
47866;SDS011;33628;50.806;11.586;2022-07-26T12:11:17;4.03;;;0.73;;
47866;SDS011;33628;50.806;11.586;2022-07-26T12:13:51;5.53;;;0.40;;
47866;SDS011;33628;50.806;11.586;2022-07-26T12:16:40;5.68;;;0.82;;
47866;SDS011;33628;50.806;11.586;2022-07-26T12:19:10;9.68;;;0.60;;
47866;SDS011;33628;50.806;11.586;2022-07-26T12:21:49;3.92;;;0.63;;
47866;SDS011;33628;50.806;11.586;2022-07-26T12:27:05;2.88;;;0.60;;
47866;SDS011;33628;50.806;11.586;2022-07-26T12:29:32;4.00;;;0.70;;
47866;SDS011;33628;50.806;11.586;2022-07-26T12:32:03;6.43;;;0.60;;
47866;SDS011;33628;50.806;11.586;2022-07-26T12:34:32;3.97;;;0.60;;
47866;SDS011;33628;50.806;11.586;2022-07-26T12:37:05;4.47;;;0.80;;
47866;SDS011;33628;50.806;11.586;2022-07-26T12:39:35;2.90;;;0.68;;
47866;SDS011;33628;50.806;11.586;2022-07-26T12:42:21;5.18;;;0.95;;
47866;SDS011;33628;50.806;11.586;2022-07-26T12:44:48;1.95;;;0.70;;
47866;SDS011;33628;50.806;11.586;2022-07-26T12:47:14;1.50;;;0.75;;
47866;SDS011;33628;50.806;11.586;2022-07-26T12:49:42;4.47;;;0.70;;
47866;SDS011;33628;50.806;11.586;2022-07-26T12:52:11;1.98;;;0.75;;
47866;SDS011;33628;50.806;11.586;2022-07-26T12:54:41;2.00;;;0.70;;
47866;SDS011;33628;50.806;11.586;2022-07-26T12:57:08;2.45;;;0.68;;
47866;SDS011;33628;50.806;11.586;2022-07-26T12:59:35;1.58;;;0.70;;
47866;SDS011;33628;50.806;11.586;2022-07-26T13:02:01;2.65;;;0.90;;
47866;SDS011;33628;50.806;11.586;2022-07-26T13:04:29;3.58;;;0.73;;
47866;SDS011;33628;50.806;11.586;2022-07-26T13:06:57;5.80;;;0.70;;
47866;SDS011;33628;50.806;11.586;2022-07-26T13:09:23;3.92;;;0.80;;
47866;SDS011;33628;50.806;11.586;2022-07-26T13:11:49;1.60;;;0.50;;
47866;SDS011;33628;50.806;11.586;2022-07-26T13:14:16;4.43;;;0.63;;
47866;SDS011;33628;50.806;11.586;2022-07-26T13:16:42;1.67;;;0.55;;
47866;SDS011;33628;50.806;11.586;2022-07-26T13:19:08;4.47;;;0.52;;
47866;SDS011;33628;50.806;11.586;2022-07-26T13:21:35;3.05;;;0.52;;
47866;SDS011;33628;50.806;11.586;2022-07-26T13:24:02;2.47;;;0.60;;
47866;SDS011;33628;50.806;11.586;2022-07-26T13:26:29;1.85;;;0.52;;
47866;SDS011;33628;50.806;11.586;2022-07-26T13:28:55;3.22;;;0.60;;
47866;SDS011;33628;50.806;11.586;2022-07-26T13:31:21;2.53;;;1.27;;
47866;SDS011;33628;50.806;11.586;2022-07-26T13:33:49;5.55;;;0.90;;
47866;SDS011;33628;50.806;11.586;2022-07-26T13:36:15;6.22;;;0.95;;
47866;SDS011;33628;50.806;11.586;2022-07-26T13:38:41;5.18;;;0.82;;
47866;SDS011;33628;50.806;11.586;2022-07-26T13:41:09;3.65;;;1.05;;
47866;SDS011;33628;50.806;11.586;2022-07-26T13:43:35;3.05;;;0.68;;
47866;SDS011;33628;50.806;11.586;2022-07-26T13:46:01;4.90;;;0.88;;
47866;SDS011;33628;50.806;11.586;2022-07-26T13:48:27;5.45;;;0.70;;
47866;SDS011;33628;50.806;11.586;2022-07-26T13:50:53;1.23;;;0.80;;
47866;SDS011;33628;50.806;11.586;2022-07-26T13:53:21;5.88;;;0.82;;
47866;SDS011;33628;50.806;11.586;2022-07-26T13:55:48;2.65;;;0.98;;
47866;SDS011;33628;50.806;11.586;2022-07-26T13:58:16;3.45;;;0.80;;
47866;SDS011;33628;50.806;11.586;2022-07-26T14:00:46;2.45;;;1.50;;
47866;SDS011;33628;50.806;11.586;2022-07-26T14:03:12;1.02;;;0.60;;
47866;SDS011;33628;50.806;11.586;2022-07-26T14:05:39;4.05;;;0.68;;
47866;SDS011;33628;50.806;11.586;2022-07-26T14:08:05;1.88;;;0.60;;
47866;SDS011;33628;50.806;11.586;2022-07-26T14:10:32;1.73;;;0.60;;
47866;SDS011;33628;50.806;11.586;2022-07-26T14:13:02;3.58;;;0.65;;
47866;SDS011;33628;50.806;11.586;2022-07-26T14:15:30;0.90;;;0.40;;
47866;SDS011;33628;50.806;11.586;2022-07-26T14:17:56;2.88;;;1.00;;
47866;SDS011;33628;50.806;11.586;2022-07-26T14:20:22;2.67;;;0.80;;
47866;SDS011;33628;50.806;11.586;2022-07-26T14:22:49;2.13;;;0.57;;
47866;SDS011;33628;50.806;11.586;2022-07-26T14:25:20;5.78;;;0.70;;
47866;SDS011;33628;50.806;11.586;2022-07-26T14:27:48;2.55;;;0.93;;
47866;SDS011;33628;50.806;11.586;2022-07-26T14:30:14;1.77;;;0.90;;
47866;SDS011;33628;50.806;11.586;2022-07-26T14:32:41;3.25;;;0.75;;
47866;SDS011;33628;50.806;11.586;2022-07-26T14:35:08;3.47;;;0.80;;
47866;SDS011;33628;50.806;11.586;2022-07-26T14:37:34;4.22;;;0.70;;
47866;SDS011;33628;50.806;11.586;2022-07-26T14:40:01;3.33;;;0.70;;
47866;SDS011;33628;50.806;11.586;2022-07-26T14:42:28;1.05;;;0.70;;
47866;SDS011;33628;50.806;11.586;2022-07-26T14:44:54;3.47;;;0.80;;
47866;SDS011;33628;50.806;11.586;2022-07-26T14:47:20;3.60;;;0.70;;
47866;SDS011;33628;50.806;11.586;2022-07-26T14:49:47;1.77;;;0.90;;
47866;SDS011;33628;50.806;11.586;2022-07-26T14:52:13;1.60;;;0.65;;
47866;SDS011;33628;50.806;11.586;2022-07-26T14:54:40;2.58;;;0.60;;